sensor_id;sensor_type;location;lat;lon;timestamp;temperature;humidity
44607;DHT22;30315;46.072;14.474;2024-01-07T16:03:04;7.80;99.90
44607;DHT22;30315;46.072;14.474;2024-01-07T16:05:47;8.00;99.90
44607;DHT22;30315;46.072;14.474;2024-01-07T16:08:16;8.00;99.90
44607;DHT22;30315;46.072;14.474;2024-01-07T16:10:50;8.00;99.90
44607;DHT22;30315;46.072;14.474;2024-01-07T16:13:27;8.00;99.90
44607;DHT22;30315;46.072;14.474;2024-01-07T16:15:56;8.00;99.90
44607;DHT22;30315;46.072;14.474;2024-01-07T16:18:24;8.00;99.90
44607;DHT22;30315;46.072;14.474;2024-01-07T16:21:24;8.10;99.90
44607;DHT22;30315;46.072;14.474;2024-01-07T16:24:11;8.10;99.90
44607;DHT22;30315;46.072;14.474;2024-01-07T16:26:42;8.00;99.90
44607;DHT22;30315;46.072;14.474;2024-01-07T16:29:21;8.00;99.90
44607;DHT22;30315;46.072;14.474;2024-01-07T16:32:31;8.00;99.90
44607;DHT22;30315;46.072;14.474;2024-01-07T16:35:38;8.00;99.90
44607;DHT22;30315;46.072;14.474;2024-01-07T16:38:26;7.70;99.90
44607;DHT22;30315;46.072;14.474;2024-01-07T16:41:14;8.00;99.90
44607;DHT22;30315;46.072;14.474;2024-01-07T16:46:55;8.10;99.90
44607;DHT22;30315;46.072;14.474;2024-01-07T16:49:35;8.00;99.90
44607;DHT22;30315;46.072;14.474;2024-01-07T16:52:24;8.10;99.90
44607;DHT22;30315;46.072;14.474;2024-01-07T16:54:52;8.00;99.90
44607;DHT22;30315;46.072;14.474;2024-01-07T16:57:24;8.10;99.90
44607;DHT22;30315;46.072;14.474;2024-01-07T17:00:01;8.10;99.90
44607;DHT22;30315;46.072;14.474;2024-01-07T17:02:30;8.10;99.90
44607;DHT22;30315;46.072;14.474;2024-01-07T17:04:58;8.10;99.90
44607;DHT22;30315;46.072;14.474;2024-01-07T17:07:32;8.10;99.90
44607;DHT22;30315;46.072;14.474;2024-01-07T17:10:08;8.10;99.90
44607;DHT22;30315;46.072;14.474;2024-01-07T17:13:12;8.10;99.90
44607;DHT22;30315;46.072;14.474;2024-01-07T17:15:42;8.10;99.90
44607;DHT22;30315;46.072;14.474;2024-01-07T17:18:18;8.10;99.90
44607;DHT22;30315;46.072;14.474;2024-01-07T17:20:46;8.10;99.90
44607;DHT22;30315;46.072;14.474;2024-01-07T17:23:15;8.10;99.90
44607;DHT22;30315;46.072;14.474;2024-01-07T17:25:49;8.00;99.90
44607;DHT22;30315;46.072;14.474;2024-01-07T17:28:17;8.00;99.90
44607;DHT22;30315;46.072;14.474;2024-01-07T17:30:58;8.10;99.90
44607;DHT22;30315;46.072;14.474;2024-01-07T17:33:53;8.10;99.90
44607;DHT22;30315;46.072;14.474;2024-01-07T17:40:57;8.00;99.90
44607;DHT22;30315;46.072;14.474;2024-01-07T17:43:28;8.00;99.90
44607;DHT22;30315;46.072;14.474;2024-01-07T17:45:56;8.00;99.90
44607;DHT22;30315;46.072;14.474;2024-01-07T17:48:38;7.90;99.90
44607;DHT22;30315;46.072;14.474;2024-01-07T17:51:27;8.00;99.90
44607;DHT22;30315;46.072;14.474;2024-01-07T17:54:19;8.00;99.90
44607;DHT22;30315;46.072;14.474;2024-01-07T17:56:50;8.00;99.90
44607;DHT22;30315;46.072;14.474;2024-01-07T17:59:18;7.90;99.90
44607;DHT22;30315;46.072;14.474;2024-01-07T18:01:46;8.00;99.90
44607;DHT22;30315;46.072;14.474;2024-01-07T18:04:37;7.90;99.90
44607;DHT22;30315;46.072;14.474;2024-01-07T18:07:09;7.90;99.90
44607;DHT22;30315;46.072;14.474;2024-01-07T18:09:41;7.90;99.90
44607;DHT22;30315;46.072;14.474;2024-01-07T18:12:22;7.90;99.90
44607;DHT22;30315;46.072;14.474;2024-01-07T18:14:52;7.80;99.90
44607;DHT22;30315;46.072;14.474;2024-01-07T18:17:22;7.80;99.90
44607;DHT22;30315;46.072;14.474;2024-01-07T18:20:06;7.80;99.90
44607;DHT22;30315;46.072;14.474;2024-01-07T18:22:34;7.80;99.90
44607;DHT22;30315;46.072;14.474;2024-01-07T18:25:19;7.80;99.90
44607;DHT22;30315;46.072;14.474;2024-01-07T18:27:48;7.80;99.90
44607;DHT22;30315;46.072;14.474;2024-01-07T18:30:21;7.80;99.90
44607;DHT22;30315;46.072;14.474;2024-01-07T18:32:49;7.80;99.90
44607;DHT22;30315;46.072;14.474;2024-01-07T18:35:35;7.80;99.90
44607;DHT22;30315;46.072;14.474;2024-01-07T18:38:35;7.80;99.90
44607;DHT22;30315;46.072;14.474;2024-01-07T18:41:03;7.90;99.90
44607;DHT22;30315;46.072;14.474;2024-01-07T18:43:34;7.70;99.90
44607;DHT22;30315;46.072;14.474;2024-01-07T18:46:02;7.70;99.90
44607;DHT22;30315;46.072;14.474;2024-01-07T18:48:51;7.70;99.90
44607;DHT22;30315;46.072;14.474;2024-01-07T18:51:40;7.70;99.90
44607;DHT22;30315;46.072;14.474;2024-01-07T18:54:11;7.70;99.90
44607;DHT22;30315;46.072;14.474;2024-01-07T18:57:13;7.70;99.90
44607;DHT22;30315;46.072;14.474;2024-01-07T18:59:55;7.60;99.90
44607;DHT22;30315;46.072;14.474;2024-01-07T19:02:23;7.60;99.90
44607;DHT22;30315;46.072;14.474;2024-01-07T19:04:56;7.60;99.90
44607;DHT22;30315;46.072;14.474;2024-01-07T19:07:24;7.60;99.90
44607;DHT22;30315;46.072;14.474;2024-01-07T19:09:54;7.60;99.90
44607;DHT22;30315;46.072;14.474;2024-01-07T19:12:24;7.60;99.90
44607;DHT22;30315;46.072;14.474;2024-01-07T19:14:54;7.50;99.90
44607;DHT22;30315;46.072;14.474;2024-01-07T19:17:43;7.60;99.90
44607;DHT22;30315;46.072;14.474;2024-01-07T19:20:26;7.60;99.90
44607;DHT22;30315;46.072;14.474;2024-01-07T19:22:58;7.60;99.90
44607;DHT22;30315;46.072;14.474;2024-01-07T19:25:27;7.60;99.90
44607;DHT22;30315;46.072;14.474;2024-01-07T19:27:56;7.60;99.90
44607;DHT22;30315;46.072;14.474;2024-01-07T19:30:30;7.50;99.90
44607;DHT22;30315;46.072;14.474;2024-01-07T19:33:08;7.50;99.90
44607;DHT22;30315;46.072;14.474;2024-01-07T19:35:57;7.50;99.90
44607;DHT22;30315;46.072;14.474;2024-01-07T19:38:31;7.50;99.90
44607;DHT22;30315;46.072;14.474;2024-01-07T19:41:00;7.50;99.90
44607;DHT22;30315;46.072;14.474;2024-01-07T19:43:27;7.40;99.90
44607;DHT22;30315;46.072;14.474;2024-01-07T19:45:55;7.40;99.90
44607;DHT22;30315;46.072;14.474;2024-01-07T19:48:26;7.40;99.90
44607;DHT22;30315;46.072;14.474;2024-01-07T19:51:24;7.40;99.90
44607;DHT22;30315;46.072;14.474;2024-01-07T19:53:52;7.40;99.90
44607;DHT22;30315;46.072;14.474;2024-01-07T19:56:21;7.40;99.90
44607;DHT22;30315;46.072;14.474;2024-01-07T19:58:49;7.30;99.90
44607;DHT22;30315;46.072;14.474;2024-01-07T20:01:53;7.30;99.90
44607;DHT22;30315;46.072;14.474;2024-01-07T20:04:22;7.30;99.90
44607;DHT22;30315;46.072;14.474;2024-01-07T20:06:52;7.30;99.90
44607;DHT22;30315;46.072;14.474;2024-01-07T20:09:23;7.20;99.90
44607;DHT22;30315;46.072;14.474;2024-01-07T20:11:55;7.20;99.70
44607;DHT22;30315;46.072;14.474;2024-01-07T20:14:23;7.20;99.60
44607;DHT22;30315;46.072;14.474;2024-01-07T20:16:55;7.20;99.60
44607;DHT22;30315;46.072;14.474;2024-01-07T20:19:23;7.20;99.40
